Balhash, Kazakhstan
Current Conditions -  °F | °C
As of 5:00 PM on Monday 20 Oct 2014 (Local Time) from UAAH Reporting Station
Clear Clear  
Wind Chill: 57°   Ceiling: Unl
Heat Index: 57°   Visibility: 6mi
Dew Point: 50°   Wind: 7mph
Humidity: 77%   Direction: 190°S
Pressure: 29.8"   Gusts: NA
Location:  46.8°N, 75.08°E
Report Text: UAAH 201100Z 19003MPS CAVOK 14/10 Q1009 R23/0///60 NOSIG RMKQFE718/0957
Loading
Personal Weather Stations






























Interactive Weather Map
Tropical Storm Tracking
New forecast layout! Learn more

10-Day Weather Forecast

Advertisements
Track Severe Weather on mobile